createdAt,value
2018-07-21T00:02:08.630Z,18.60
2018-07-21T00:04:37.384Z,18.60
2018-07-21T00:07:06.145Z,18.50
2018-07-21T00:09:34.942Z,18.60
2018-07-21T00:12:03.706Z,18.50
2018-07-21T00:14:32.553Z,18.50
2018-07-21T00:17:01.313Z,18.50
2018-07-21T00:19:30.082Z,18.40
2018-07-21T00:21:58.992Z,18.40
2018-07-21T00:24:27.749Z,18.40
2018-07-21T00:26:56.510Z,18.40
2018-07-21T00:29:25.273Z,18.40
2018-07-21T00:31:54.029Z,18.40
2018-07-21T00:34:22.857Z,18.40
2018-07-21T00:42:11.586Z,18.30
2018-07-21T00:44:40.353Z,18.30
2018-07-21T00:47:09.121Z,18.30
2018-07-21T00:49:37.867Z,18.30
2018-07-21T00:52:06.685Z,18.30
2018-07-21T00:54:35.445Z,18.30
2018-07-21T00:57:04.205Z,18.30
2018-07-21T00:59:32.960Z,18.20
2018-07-21T01:02:01.741Z,18.20
2018-07-21T01:04:30.537Z,18.20
2018-07-21T01:06:59.305Z,18.10
2018-07-21T01:09:28.113Z,18.10
2018-07-21T01:11:56.873Z,18.10
2018-07-21T01:14:25.653Z,18.10
2018-07-21T01:16:54.385Z,18.00
2018-07-21T01:21:51.917Z,17.90
2018-07-21T01:24:20.706Z,17.90
2018-07-21T01:26:49.472Z,17.90
2018-07-21T01:29:18.249Z,17.90
2018-07-21T01:31:46.995Z,17.80
2018-07-21T01:34:15.787Z,17.80
2018-07-21T01:36:44.513Z,17.80
2018-07-21T01:39:13.301Z,17.80
2018-07-21T01:41:42.070Z,17.80
2018-07-21T01:49:07.834Z,17.70
2018-07-21T01:59:02.094Z,17.70
2018-07-21T02:01:30.849Z,17.70
2018-07-21T02:06:28.110Z,17.60
2018-07-21T02:11:25.381Z,17.60
2018-07-21T02:13:54.273Z,17.60
2018-07-21T02:18:51.517Z,17.50
2018-07-21T02:21:20.298Z,17.60
2018-07-21T02:23:49.155Z,17.60
2018-07-21T02:26:17.894Z,17.50
2018-07-21T02:28:46.662Z,17.50
2018-07-21T02:31:15.433Z,17.40
2018-07-21T02:33:44.294Z,17.40
2018-07-21T02:41:10.037Z,17.30
2018-07-21T02:46:07.293Z,17.30
2018-07-21T02:48:36.109Z,17.30
2018-07-21T02:51:04.921Z,17.30
2018-07-21T02:53:33.677Z,17.30
2018-07-21T02:58:30.978Z,17.20
2018-07-21T03:00:59.738Z,17.20
2018-07-21T03:05:56.981Z,17.20
2018-07-21T03:08:25.742Z,17.20
2018-07-21T03:10:54.543Z,17.20
2018-07-21T03:13:23.329Z,17.20
2018-07-21T03:15:52.112Z,17.10
2018-07-21T03:18:20.927Z,17.10
2018-07-21T03:20:49.701Z,17.10
2018-07-21T03:23:18.469Z,17.10
2018-07-21T03:25:47.242Z,17.10
2018-07-21T03:28:16.037Z,17.00
2018-07-21T03:30:44.878Z,17.00
2018-07-21T03:33:13.544Z,17.00
2018-07-21T03:35:42.317Z,17.10
2018-07-21T03:38:11.110Z,17.00
2018-07-21T03:40:39.901Z,17.00
2018-07-21T03:43:08.789Z,17.10
2018-07-21T03:45:37.570Z,17.10
2018-07-21T03:48:06.325Z,17.10
2018-07-21T03:50:35.093Z,17.20
2018-07-21T03:55:32.829Z,17.20
2018-07-21T03:58:01.593Z,17.20
2018-07-21T04:00:30.421Z,17.20
2018-07-21T04:02:59.214Z,17.20
2018-07-21T04:05:27.981Z,17.20
2018-07-21T04:07:56.764Z,17.20
2018-07-21T04:10:25.793Z,17.20
2018-07-21T04:12:54.556Z,17.30
2018-07-21T04:15:23.386Z,17.30
2018-07-21T04:20:20.652Z,17.40
2018-07-21T04:22:49.521Z,17.40
2018-07-21T04:25:18.321Z,17.40
2018-07-21T04:27:47.137Z,17.50
2018-07-21T04:32:44.414Z,17.50
2018-07-21T04:35:13.192Z,17.60
2018-07-21T04:40:10.486Z,17.60
2018-07-21T04:42:39.281Z,17.60
2018-07-21T04:45:08.074Z,17.70
2018-07-21T04:47:36.852Z,17.70
2018-07-21T04:50:05.633Z,17.80
2018-07-21T04:52:34.428Z,17.90
2018-07-21T04:55:03.200Z,18.00
2018-07-21T05:00:00.534Z,18.10
2018-07-21T05:02:29.313Z,18.10
2018-07-21T05:04:58.102Z,18.10
2018-07-21T05:07:26.984Z,18.10
2018-07-21T05:09:55.705Z,18.10
2018-07-21T05:12:24.466Z,18.20
2018-07-21T05:14:53.251Z,18.20
2018-07-21T05:17:22.038Z,18.20
2018-07-21T05:19:50.797Z,18.20
2018-07-21T05:22:19.572Z,18.30
2018-07-21T05:24:48.341Z,18.50
2018-07-21T05:27:17.092Z,18.60
2018-07-21T05:29:45.881Z,18.70
2018-07-21T05:32:14.645Z,18.70
2018-07-21T05:34:43.444Z,18.80
2018-07-21T05:37:12.244Z,18.90
2018-07-21T05:39:41.017Z,18.90
2018-07-21T05:42:09.772Z,19.10
2018-07-21T05:44:38.545Z,19.10
2018-07-21T05:47:07.309Z,19.20
2018-07-21T05:49:36.063Z,19.30
2018-07-21T05:52:04.837Z,19.20
2018-07-21T05:54:33.587Z,19.20
2018-07-21T05:57:02.374Z,19.20
2018-07-21T05:59:31.129Z,19.30
2018-07-21T06:01:59.914Z,19.30
2018-07-21T06:04:28.700Z,19.40
2018-07-21T06:06:57.445Z,19.40
2018-07-21T06:09:26.233Z,19.40
2018-07-21T06:11:55.017Z,19.40
2018-07-21T06:14:23.772Z,19.50
2018-07-21T06:16:52.600Z,19.60
2018-07-21T06:19:21.362Z,19.60
2018-07-21T06:21:50.525Z,19.70
2018-07-21T06:24:19.269Z,19.70
2018-07-21T06:26:48.417Z,19.70
2018-07-21T06:29:17.160Z,19.80
2018-07-21T06:31:45.931Z,19.80
2018-07-21T06:34:14.723Z,19.80
2018-07-21T06:36:43.464Z,19.90
2018-07-21T06:39:12.945Z,19.90
2018-07-21T06:41:42.285Z,19.90
2018-07-21T06:44:11.234Z,20.00
2018-07-21T06:46:40.058Z,20.10
2018-07-21T06:49:08.797Z,20.10
2018-07-21T06:51:37.603Z,20.10
2018-07-21T06:54:06.357Z,20.20
2018-07-21T06:56:35.137Z,20.30
2018-07-21T06:59:03.937Z,20.30
2018-07-21T07:01:32.695Z,20.30
2018-07-21T07:04:01.472Z,20.40
2018-07-21T07:06:30.469Z,20.50
2018-07-21T07:08:59.233Z,20.60
2018-07-21T07:11:28.015Z,20.60
2018-07-21T07:13:56.854Z,20.70
2018-07-21T07:16:25.656Z,20.80
2018-07-21T07:18:54.373Z,20.90
2018-07-21T07:21:23.226Z,20.90
2018-07-21T07:23:51.993Z,21.00
2018-07-21T07:26:20.773Z,21.00
2018-07-21T07:28:49.522Z,21.00
2018-07-21T07:31:18.350Z,21.10
2018-07-21T07:33:47.237Z,21.10
2018-07-21T07:36:15.994Z,21.20
2018-07-21T07:38:44.750Z,21.30
2018-07-21T07:41:13.518Z,21.30
2018-07-21T07:43:42.321Z,21.40
2018-07-21T07:46:11.069Z,21.40
2018-07-21T07:48:39.836Z,21.50
2018-07-21T07:51:08.581Z,21.60
2018-07-21T07:53:37.366Z,21.60
2018-07-21T07:56:06.133Z,21.60
2018-07-21T07:58:34.929Z,21.70
2018-07-21T08:01:03.797Z,21.80
2018-07-21T08:03:32.564Z,21.90
2018-07-21T08:06:01.325Z,21.90
2018-07-21T08:08:30.181Z,21.80
2018-07-21T08:10:58.910Z,21.90
2018-07-21T08:13:27.902Z,22.00
2018-07-21T08:15:56.620Z,22.00
2018-07-21T08:23:22.454Z,22.50
2018-07-21T08:25:51.221Z,22.60
2018-07-21T08:28:20.013Z,22.60
2018-07-21T08:30:48.788Z,22.60
2018-07-21T08:33:17.609Z,22.70
2018-07-21T08:35:46.349Z,22.80
2018-07-21T08:38:15.122Z,22.80
2018-07-21T08:40:44.030Z,22.90
2018-07-21T08:43:12.938Z,22.90
2018-07-21T08:45:41.725Z,22.90
2018-07-21T08:48:10.573Z,23.00
2018-07-21T08:50:39.353Z,23.10
2018-07-21T08:53:08.116Z,23.10
2018-07-21T08:55:37.041Z,23.10
2018-07-21T08:58:06.103Z,23.10
2018-07-21T09:00:34.908Z,23.20
2018-07-21T09:03:03.685Z,23.20
2018-07-21T09:05:32.441Z,23.30
2018-07-21T09:08:01.229Z,23.30
2018-07-21T09:10:29.960Z,23.40
2018-07-21T09:12:58.771Z,23.40
2018-07-21T09:17:56.080Z,23.50
2018-07-21T09:20:24.808Z,23.60
2018-07-21T09:22:53.804Z,23.70
2018-07-21T09:25:22.581Z,23.80
2018-07-21T09:27:51.356Z,23.90
2018-07-21T09:30:20.150Z,23.90
2018-07-21T09:32:48.977Z,23.90
2018-07-21T09:37:46.201Z,24.10
2018-07-21T09:40:14.964Z,24.10
2018-07-21T09:42:43.733Z,24.20
2018-07-21T09:45:12.581Z,24.40
2018-07-21T09:47:41.387Z,24.40
2018-07-21T09:50:10.622Z,24.50
2018-07-21T09:52:39.722Z,24.60
2018-07-21T09:55:09.401Z,24.70
2018-07-21T10:00:09.960Z,25.10
2018-07-21T10:02:38.738Z,25.20
2018-07-21T10:05:07.529Z,25.40
2018-07-21T10:10:05.090Z,25.60
2018-07-21T10:12:33.881Z,25.70
2018-07-21T10:15:02.686Z,25.70
2018-07-21T10:22:28.508Z,25.90
2018-07-21T10:25:02.809Z,26.00
2018-07-21T10:27:37.307Z,26.20
2018-07-21T10:30:06.355Z,26.40
2018-07-21T10:32:35.168Z,26.40
2018-07-21T10:35:04.041Z,26.70
2018-07-21T10:40:01.334Z,26.90
2018-07-21T10:42:30.101Z,27.10
2018-07-21T10:44:58.967Z,27.20
2018-07-21T10:47:27.721Z,27.20
2018-07-21T10:49:56.513Z,27.40
2018-07-21T10:52:25.543Z,27.40
2018-07-21T10:54:54.309Z,27.50
2018-07-21T10:57:23.397Z,27.30
2018-07-21T10:59:52.671Z,27.50
2018-07-21T11:04:50.028Z,28.00
2018-07-21T11:07:18.788Z,28.20
2018-07-21T11:09:47.729Z,28.10
2018-07-21T11:12:16.893Z,28.20
2018-07-21T11:14:45.789Z,28.30
2018-07-21T11:17:14.575Z,28.30
2018-07-21T11:19:43.341Z,28.30
2018-07-21T11:22:12.153Z,28.40
2018-07-21T11:24:40.937Z,28.50
2018-07-21T11:27:09.753Z,28.80
2018-07-21T11:29:38.681Z,28.90
2018-07-21T11:32:07.494Z,28.90
2018-07-21T11:34:36.305Z,29.30
2018-07-21T11:39:33.774Z,29.60
2018-07-21T11:42:02.533Z,29.80
2018-07-21T11:44:31.332Z,29.90
2018-07-21T11:47:00.117Z,29.90
2018-07-21T11:49:28.904Z,29.70
2018-07-21T11:51:57.684Z,29.70
2018-07-21T11:54:26.497Z,29.90
2018-07-21T11:57:01.353Z,30.40
2018-07-21T11:59:31.161Z,30.70
2018-07-21T12:01:59.920Z,30.80
2018-07-21T12:04:29.872Z,30.20
2018-07-21T12:06:58.699Z,30.50
2018-07-21T12:09:27.612Z,30.60
2018-07-21T12:11:56.420Z,30.60
2018-07-21T12:14:25.284Z,30.20
2018-07-21T12:16:54.092Z,29.90
2018-07-21T12:19:23.009Z,29.90
2018-07-21T12:21:51.864Z,29.70
2018-07-21T12:24:20.655Z,29.60
2018-07-21T12:26:49.536Z,29.60
2018-07-21T12:29:18.301Z,29.50
2018-07-21T12:31:47.180Z,29.10
2018-07-21T12:34:16.048Z,29.30
2018-07-21T12:36:44.802Z,29.10
2018-07-21T12:39:13.580Z,29.00
2018-07-21T12:41:42.346Z,29.20
2018-07-21T12:44:11.177Z,29.20
2018-07-21T12:46:40.217Z,29.50
2018-07-21T12:49:08.973Z,30.10
2018-07-21T12:51:37.732Z,30.40
2018-07-21T12:54:06.537Z,29.90
2018-07-21T12:56:35.440Z,30.00
2018-07-21T12:59:04.201Z,30.30
2018-07-21T13:01:32.964Z,30.20
2018-07-21T13:04:01.717Z,30.20
2018-07-21T13:06:30.522Z,30.10
2018-07-21T13:08:59.365Z,30.10
2018-07-21T13:11:28.152Z,30.10
2018-07-21T13:13:56.937Z,30.40
2018-07-21T13:16:25.757Z,30.80
2018-07-21T13:18:54.521Z,30.30
2018-07-21T13:21:23.318Z,30.10
2018-07-21T13:23:52.091Z,30.20
2018-07-21T13:26:20.829Z,30.90
2018-07-21T13:28:50.003Z,30.70
2018-07-21T13:31:18.938Z,30.70
2018-07-21T13:33:47.738Z,31.20
2018-07-21T13:36:16.578Z,31.00
2018-07-21T13:38:45.474Z,31.00
2018-07-21T13:41:14.320Z,31.00
2018-07-21T13:43:43.137Z,31.50
2018-07-21T13:46:11.942Z,31.50
2018-07-21T13:48:40.672Z,31.00
2018-07-21T13:51:09.625Z,30.30
2018-07-21T13:53:38.423Z,29.60
2018-07-21T13:56:07.206Z,29.50
2018-07-21T13:58:35.943Z,29.50
2018-07-21T14:01:04.700Z,29.80
2018-07-21T14:03:33.464Z,30.10
2018-07-21T14:06:02.278Z,30.80
2018-07-21T14:08:32.071Z,30.80
2018-07-21T14:11:00.883Z,30.90
2018-07-21T14:13:29.693Z,30.80
2018-07-21T14:15:58.545Z,31.20
2018-07-21T14:18:27.238Z,31.30
2018-07-21T14:20:56.022Z,31.50
2018-07-21T14:23:24.939Z,31.50
2018-07-21T14:25:53.670Z,31.60
2018-07-21T14:28:22.429Z,32.00
2018-07-21T14:30:51.207Z,31.70
2018-07-21T14:33:20.022Z,31.20
2018-07-21T14:35:48.809Z,31.50
2018-07-21T14:38:17.629Z,31.80
2018-07-21T14:40:46.408Z,32.00
2018-07-21T14:43:15.312Z,32.00
2018-07-21T14:45:44.079Z,32.00
2018-07-21T14:48:12.869Z,32.30
2018-07-21T14:50:41.757Z,32.60
2018-07-21T14:53:10.518Z,32.10
2018-07-21T14:55:39.345Z,31.60
2018-07-21T14:58:08.157Z,31.70
2018-07-21T15:00:36.965Z,31.60
2018-07-21T15:03:05.832Z,31.90
2018-07-21T15:05:34.612Z,31.70
2018-07-21T15:08:03.405Z,31.70
2018-07-21T15:10:32.210Z,31.60
2018-07-21T15:13:00.992Z,31.30
2018-07-21T15:15:29.774Z,31.60
2018-07-21T15:17:58.608Z,31.70
2018-07-21T15:20:27.412Z,31.70
2018-07-21T15:22:56.197Z,31.90
2018-07-21T15:25:25.150Z,31.90
2018-07-21T15:27:53.933Z,32.00
2018-07-21T15:30:22.682Z,32.00
2018-07-21T15:32:51.474Z,31.90
2018-07-21T15:35:20.281Z,31.50
2018-07-21T15:37:49.137Z,31.80
2018-07-21T15:40:17.971Z,31.60
2018-07-21T15:42:46.821Z,31.00
2018-07-21T15:45:15.569Z,30.90
2018-07-21T15:47:44.380Z,30.70
2018-07-21T15:50:13.233Z,30.60
2018-07-21T15:52:42.054Z,30.50
2018-07-21T15:55:10.827Z,30.40
2018-07-21T15:57:39.600Z,30.30
2018-07-21T16:00:08.432Z,30.00
2018-07-21T16:02:37.211Z,29.90
2018-07-21T16:05:05.987Z,29.90
2018-07-21T16:07:34.761Z,29.80
2018-07-21T16:10:03.537Z,29.60
2018-07-21T16:12:32.378Z,29.50
2018-07-21T16:15:03.869Z,29.40
2018-07-21T16:17:30.010Z,29.50
2018-07-21T16:19:58.773Z,29.40
2018-07-21T16:22:27.616Z,29.40
2018-07-21T16:24:56.388Z,29.40
2018-07-21T16:27:25.124Z,29.10
2018-07-21T16:29:53.896Z,29.10
2018-07-21T16:32:22.709Z,28.90
2018-07-21T16:34:51.467Z,28.80
2018-07-21T16:37:20.364Z,28.70
2018-07-21T16:39:49.183Z,29.10
2018-07-21T16:42:17.921Z,29.60
2018-07-21T16:44:46.694Z,29.50
2018-07-21T16:47:15.458Z,29.60
2018-07-21T16:49:44.262Z,29.80
2018-07-21T16:52:13.029Z,29.70
2018-07-21T16:54:41.805Z,29.50
2018-07-21T16:57:10.529Z,29.20
2018-07-21T16:59:39.303Z,29.20
2018-07-21T17:02:08.060Z,29.20
2018-07-21T17:04:36.824Z,28.90
2018-07-21T17:07:05.589Z,28.80
2018-07-21T17:09:34.300Z,28.70
2018-07-21T17:12:03.169Z,28.70
2018-07-21T17:14:31.991Z,28.70
2018-07-21T17:17:00.705Z,28.60
2018-07-21T17:19:29.496Z,28.50
2018-07-21T17:21:58.333Z,28.50
2018-07-21T17:24:27.154Z,28.30
2018-07-21T17:26:55.918Z,28.20
2018-07-21T17:29:24.937Z,28.10
2018-07-21T17:31:53.809Z,28.30
2018-07-21T17:34:22.597Z,28.10
2018-07-21T17:36:51.361Z,28.10
2018-07-21T17:39:20.116Z,28.10
2018-07-21T17:41:48.885Z,28.00
2018-07-21T17:44:18.138Z,28.00
2018-07-21T17:46:46.952Z,27.80
2018-07-21T17:49:15.809Z,27.70
2018-07-21T17:51:44.602Z,27.60
2018-07-21T17:54:13.401Z,27.60
2018-07-21T17:56:42.177Z,27.50
2018-07-21T18:01:39.465Z,27.30
2018-07-21T18:04:08.260Z,27.20
2018-07-21T18:06:37.097Z,27.20
2018-07-21T18:09:06.761Z,27.20
2018-07-21T18:11:35.554Z,27.20
2018-07-21T18:14:04.328Z,27.00
2018-07-21T18:16:33.354Z,27.00
2018-07-21T18:19:02.117Z,26.90
2018-07-21T18:21:30.917Z,26.80
2018-07-21T18:23:59.761Z,26.90
2018-07-21T18:26:28.613Z,26.90
2018-07-21T18:28:57.372Z,26.90
2018-07-21T18:31:26.149Z,26.90
2018-07-21T18:33:54.928Z,26.80
2018-07-21T18:36:23.737Z,26.80
2018-07-21T18:38:52.477Z,26.80
2018-07-21T18:41:21.285Z,26.70
2018-07-21T18:43:50.197Z,26.60
2018-07-21T18:46:18.964Z,26.60
2018-07-21T18:48:47.769Z,26.50
2018-07-21T18:51:16.732Z,26.40
2018-07-21T18:53:45.528Z,26.30
2018-07-21T18:56:14.305Z,26.20
2018-07-21T18:58:43.082Z,26.00
2018-07-21T19:01:11.917Z,26.00
2018-07-21T19:03:40.728Z,25.80
2018-07-21T19:06:09.548Z,25.80
2018-07-21T19:08:43.801Z,25.60
2018-07-21T19:11:12.574Z,25.60
2018-07-21T19:13:41.345Z,25.60
2018-07-21T19:16:15.472Z,25.50
2018-07-21T19:18:44.213Z,25.40
2018-07-21T19:21:17.294Z,25.40
2018-07-21T19:23:46.452Z,25.30
2018-07-21T19:26:20.438Z,25.40
2018-07-21T19:28:49.360Z,25.20
2018-07-21T19:31:18.204Z,25.20
2018-07-21T19:33:47.132Z,25.20
2018-07-21T19:36:15.964Z,25.10
2018-07-21T19:38:44.765Z,25.00
2018-07-21T19:41:18.809Z,25.00
2018-07-21T19:43:47.597Z,25.00
2018-07-21T19:46:16.377Z,25.00
2018-07-21T19:48:45.216Z,24.90
2018-07-21T19:51:13.956Z,24.80
2018-07-21T19:53:42.857Z,24.80
2018-07-21T19:56:11.579Z,24.80
2018-07-21T19:58:40.344Z,24.70
2018-07-21T20:01:09.150Z,24.70
2018-07-21T20:03:37.937Z,24.70
2018-07-21T20:06:06.718Z,24.70
2018-07-21T20:08:35.546Z,24.60
2018-07-21T20:11:04.291Z,24.60
2018-07-21T20:13:33.093Z,24.60
2018-07-21T20:16:01.870Z,24.50
2018-07-21T20:18:30.705Z,24.50
2018-07-21T20:20:59.578Z,24.50
2018-07-21T20:23:29.886Z,24.40
2018-07-21T20:25:58.653Z,24.40
2018-07-21T20:28:27.574Z,24.40
2018-07-21T20:30:56.346Z,24.40
2018-07-21T20:33:25.135Z,24.30
2018-07-21T20:35:53.921Z,24.40
2018-07-21T20:38:22.700Z,24.30
2018-07-21T20:40:51.478Z,24.30
2018-07-21T20:43:20.357Z,24.30
2018-07-21T20:45:49.081Z,24.30
2018-07-21T20:48:17.887Z,24.20
2018-07-21T20:50:46.609Z,24.20
2018-07-21T20:53:15.432Z,24.20
2018-07-21T20:55:44.317Z,24.20
2018-07-21T20:58:13.125Z,24.10
2018-07-21T21:00:41.889Z,24.20
2018-07-21T21:03:10.678Z,24.20
2018-07-21T21:05:39.432Z,24.20
2018-07-21T21:08:08.168Z,24.20
2018-07-21T21:10:36.944Z,24.20
2018-07-21T21:13:06.100Z,24.20
2018-07-21T21:15:34.928Z,24.10
2018-07-21T21:18:03.693Z,24.10
2018-07-21T21:20:32.448Z,24.10
2018-07-21T21:23:01.269Z,24.00
2018-07-21T21:25:30.073Z,24.00
2018-07-21T21:27:58.816Z,24.00
2018-07-21T21:30:27.637Z,24.00
2018-07-21T21:32:56.616Z,24.00
2018-07-21T21:35:25.401Z,23.90
2018-07-21T21:37:54.181Z,23.70
2018-07-21T21:40:23.035Z,23.70
2018-07-21T21:42:51.811Z,23.60
2018-07-21T21:45:20.596Z,23.60
2018-07-21T21:47:49.320Z,23.50
2018-07-21T21:50:18.137Z,23.50
2018-07-21T21:52:47.065Z,23.50
2018-07-21T21:55:15.823Z,23.40
2018-07-21T21:57:44.575Z,23.40
2018-07-21T22:00:13.585Z,23.30
2018-07-21T22:02:42.385Z,23.40
2018-07-21T22:05:11.865Z,23.30
2018-07-21T22:07:40.698Z,23.30
2018-07-21T22:10:09.454Z,23.30
2018-07-21T22:12:38.330Z,23.20
2018-07-21T22:15:12.653Z,23.20
2018-07-21T22:17:41.417Z,23.20
2018-07-21T22:20:10.289Z,23.20
2018-07-21T22:22:39.042Z,23.10
2018-07-21T22:25:07.837Z,23.10
2018-07-21T22:27:36.605Z,23.10
2018-07-21T22:30:05.442Z,23.10
2018-07-21T22:32:34.273Z,23.10
2018-07-21T22:35:03.054Z,23.00
2018-07-21T22:37:31.847Z,23.10
2018-07-21T22:40:00.601Z,23.00
2018-07-21T22:42:29.370Z,22.90
2018-07-21T22:47:26.673Z,22.90
2018-07-21T22:49:55.461Z,22.80
2018-07-21T22:52:24.213Z,22.80
2018-07-21T22:57:21.479Z,22.70
2018-07-21T22:59:50.233Z,22.70
2018-07-21T23:02:19.024Z,22.60
2018-07-21T23:04:47.845Z,22.60
2018-07-21T23:07:16.662Z,22.60
2018-07-21T23:09:45.429Z,22.60
2018-07-21T23:14:42.721Z,22.60
2018-07-21T23:17:11.604Z,22.60
2018-07-21T23:19:40.373Z,22.50
2018-07-21T23:22:09.619Z,22.50
2018-07-21T23:24:38.357Z,22.50
2018-07-21T23:27:07.117Z,22.50
2018-07-21T23:29:35.881Z,22.50
2018-07-21T23:32:04.829Z,22.50
2018-07-21T23:34:33.579Z,22.50
2018-07-21T23:37:02.347Z,22.50
2018-07-21T23:39:31.100Z,22.50
2018-07-21T23:41:59.924Z,22.40
2018-07-21T23:44:28.657Z,22.40
2018-07-21T23:46:57.428Z,22.30
2018-07-21T23:49:26.241Z,22.30
2018-07-21T23:51:55.006Z,22.30
2018-07-21T23:54:23.792Z,22.30
2018-07-21T23:56:52.557Z,22.30
2018-07-21T23:59:21.316Z,22.30
